UTA381 UUWW-ULLI
Flight info
| Callsign | UTA381 |
|---|---|
| Flight time | 1h 9m |
| Altitude | 36000 |
| Route | SUNUN3B SUNUN M869 RAVKA N50 NUDKO T561 ODATI T875 GENPA GENPA1V |
| Aircraft | B735/M-SDE2E3FHIRW/S |
Departure
| Time | 2026-05-01 10:14 |
|---|---|
| Airport | Vnukovo International Airport (UUWW) |
Arrival
| Time | 2026-05-01 11:24 |
|---|---|
| Airport | Pulkovo Airport (ULLI) |
| Time | Latitude | Longitude | Altitude | Speed | Heading |
|---|---|---|---|---|---|
| 2026-05-01 09:39 | 55.60271 | 37.28466 | 677 ft | 0 kts | 284° |
| 2026-05-01 10:01 | 55.60267 | 37.28496 | 680 ft | 4 kts | 282° |
| 2026-05-01 10:01 | 55.60262 | 37.28543 | 680 ft | 4 kts | 279° |
| 2026-05-01 10:02 | 55.60259 | 37.28590 | 676 ft | 4 kts | 274° |
| 2026-05-01 10:02 | 55.60259 | 37.28638 | 675 ft | 4 kts | 258° |
| 2026-05-01 10:02 | 55.60271 | 37.28671 | 679 ft | 2 kts | 198° |
| 2026-05-01 10:02 | 55.60272 | 37.28672 | 673 ft | 0 kts | 195° |
| 2026-05-01 10:06 | 55.60271 | 37.28672 | 673 ft | 0 kts | 195° |
| 2026-05-01 10:06 | 55.60270 | 37.28671 | 679 ft | 2 kts | 195° |
| 2026-05-01 10:06 | 55.60262 | 37.28667 | 679 ft | 0 kts | 195° |
| 2026-05-01 10:06 | 55.60248 | 37.28661 | 677 ft | 6 kts | 195° |
| 2026-05-01 10:07 | 55.60188 | 37.28608 | 679 ft | 13 kts | 220° |
| 2026-05-01 10:07 | 55.60116 | 37.28473 | 679 ft | 17 kts | 227° |
| 2026-05-01 10:07 | 55.60081 | 37.28266 | 679 ft | 20 kts | 266° |
| 2026-05-01 10:07 | 55.60085 | 37.28025 | 678 ft | 17 kts | 294° |
| 2026-05-01 10:08 | 55.60045 | 37.27771 | 678 ft | 12 kts | 213° |
| 2026-05-01 10:08 | 55.59978 | 37.27672 | 678 ft | 13 kts | 230° |
| 2026-05-01 10:08 | 55.59921 | 37.27536 | 679 ft | 14 kts | 226° |
| 2026-05-01 10:09 | 55.59845 | 37.27395 | 675 ft | 17 kts | 226° |
| 2026-05-01 10:09 | 55.59756 | 37.27229 | 671 ft | 20 kts | 227° |
| 2026-05-01 10:09 | 55.59652 | 37.27040 | 668 ft | 22 kts | 225° |
| 2026-05-01 10:09 | 55.59551 | 37.26837 | 668 ft | 22 kts | 238° |
| 2026-05-01 10:10 | 55.59485 | 37.26584 | 668 ft | 23 kts | 249° |
| 2026-05-01 10:10 | 55.59424 | 37.26311 | 668 ft | 25 kts | 248° |
| 2026-05-01 10:10 | 55.59287 | 37.25707 | 666 ft | 28 kts | 248° |
| 2026-05-01 10:11 | 55.59216 | 37.25378 | 662 ft | 29 kts | 249° |
| 2026-05-01 10:11 | 55.59144 | 37.25068 | 659 ft | 25 kts | 248° |
| 2026-05-01 10:11 | 55.59088 | 37.24811 | 659 ft | 20 kts | 248° |
| 2026-05-01 10:11 | 55.59042 | 37.24611 | 659 ft | 16 kts | 248° |
| 2026-05-01 10:12 | 55.58998 | 37.24432 | 659 ft | 16 kts | 244° |
| 2026-05-01 10:12 | 55.58966 | 37.24314 | 661 ft | 17 kts | 244° |
| 2026-05-01 10:12 | 55.58839 | 37.23880 | 638 ft | 20 kts | 243° |
| 2026-05-01 10:13 | 55.58755 | 37.23811 | 638 ft | 9 kts | 161° |
| 2026-05-01 10:13 | 55.58696 | 37.23850 | 634 ft | 9 kts | 158° |
| 2026-05-01 10:13 | 55.58653 | 37.23900 | 635 ft | 2 kts | 123° |
| 2026-05-01 10:14 | 55.58711 | 37.24167 | 645 ft | 51 kts | 68° |
| 2026-05-01 10:14 | 55.58921 | 37.25096 | 659 ft | 114 kts | 68° |
| 2026-05-01 10:14 | 55.59286 | 37.26741 | 742 ft | 169 kts | 68° |
| 2026-05-01 10:14 | 55.59716 | 37.28771 | 1381 ft | 182 kts | 69° |
| 2026-05-01 10:15 | 55.60175 | 37.30893 | 2324 ft | 190 kts | 66° |
| 2026-05-01 10:15 | 55.60681 | 37.33195 | 3009 ft | 212 kts | 67° |
| 2026-05-01 10:15 | 55.61226 | 37.35740 | 3863 ft | 223 kts | 68° |
| 2026-05-01 10:15 | 55.61677 | 37.38264 | 5218 ft | 212 kts | 73° |
| 2026-05-01 10:16 | 55.61996 | 37.40955 | 5816 ft | 237 kts | 91° |
| 2026-05-01 10:16 | 55.61425 | 37.43722 | 6644 ft | 249 kts | 127° |
| 2026-05-01 10:16 | 55.58159 | 37.46695 | 7021 ft | 282 kts | 172° |
| 2026-05-01 10:17 | 55.56225 | 37.46558 | 6989 ft | 278 kts | 197° |
| 2026-05-01 10:17 | 55.53140 | 37.42682 | 7021 ft | 274 kts | 227° |
| 2026-05-01 10:17 | 55.51832 | 37.40238 | 7012 ft | 274 kts | 228° |
| 2026-05-01 10:18 | 55.49397 | 37.35113 | 7009 ft | 272 kts | 244° |
| 2026-05-01 10:18 | 55.48888 | 37.31953 | 7008 ft | 269 kts | 271° |
| 2026-05-01 10:18 | 55.49320 | 37.28831 | 7026 ft | 265 kts | 300° |
| 2026-05-01 10:19 | 55.50474 | 37.26312 | 7036 ft | 265 kts | 318° |
| 2026-05-01 10:19 | 55.51886 | 37.24223 | 7021 ft | 264 kts | 323° |
| 2026-05-01 10:19 | 55.53337 | 37.22229 | 7013 ft | 264 kts | 322° |
| 2026-05-01 10:20 | 55.56087 | 37.17762 | 8354 ft | 268 kts | 316° |
| 2026-05-01 10:20 | 55.57392 | 37.15407 | 9478 ft | 270 kts | 316° |
| 2026-05-01 10:20 | 55.58730 | 37.12979 | 9960 ft | 279 kts | 316° |
| 2026-05-01 10:20 | 55.60094 | 37.10507 | 10015 ft | 285 kts | 315° |
| 2026-05-01 10:21 | 55.61501 | 37.07955 | 10008 ft | 293 kts | 315° |
| 2026-05-01 10:21 | 55.64471 | 37.02962 | 9988 ft | 289 kts | 325° |
| 2026-05-01 10:21 | 55.66158 | 37.01215 | 9987 ft | 275 kts | 336° |
| 2026-05-01 10:22 | 55.69721 | 36.98689 | 10019 ft | 287 kts | 340° |
| 2026-05-01 10:22 | 55.73541 | 36.95991 | 10347 ft | 302 kts | 338° |
| 2026-05-01 10:23 | 55.75484 | 36.94530 | 10732 ft | 302 kts | 338° |
| 2026-05-01 10:23 | 55.79317 | 36.91603 | 11016 ft | 299 kts | 338° |
| 2026-05-01 10:23 | 55.81207 | 36.90001 | 11073 ft | 307 kts | 332° |
| 2026-05-01 10:24 | 55.84693 | 36.85554 | 12773 ft | 314 kts | 324° |
| 2026-05-01 10:24 | 55.88055 | 36.80631 | 13020 ft | 309 kts | 324° |
| 2026-05-01 10:25 | 55.91404 | 36.75827 | 13196 ft | 315 kts | 326° |
| 2026-05-01 10:25 | 55.94831 | 36.71058 | 15227 ft | 312 kts | 327° |
| 2026-05-01 10:26 | 55.96546 | 36.68687 | 16029 ft | 318 kts | 328° |
| 2026-05-01 10:26 | 55.98311 | 36.66239 | 16936 ft | 320 kts | 328° |
| 2026-05-01 10:26 | 56.01855 | 36.61312 | 18582 ft | 329 kts | 329° |
| 2026-05-01 10:27 | 56.05489 | 36.56253 | 20156 ft | 334 kts | 329° |
| 2026-05-01 10:27 | 56.08897 | 36.50322 | 21461 ft | 362 kts | 309° |
| 2026-05-01 10:28 | 56.09890 | 36.46111 | 22450 ft | 369 kts | 293° |
| 2026-05-01 10:28 | 56.11064 | 36.36908 | 23597 ft | 387 kts | 291° |
| 2026-05-01 10:28 | 56.11752 | 36.32257 | 24318 ft | 385 kts | 294° |
| 2026-05-01 10:29 | 56.13297 | 36.22996 | 25390 ft | 393 kts | 295° |
| 2026-05-01 10:29 | 56.14089 | 36.18280 | 26008 ft | 395 kts | 296° |
| 2026-05-01 10:30 | 56.15960 | 36.09020 | 27173 ft | 392 kts | 303° |
| 2026-05-01 10:30 | 56.18337 | 36.00215 | 28307 ft | 395 kts | 306° |
| 2026-05-01 10:31 | 56.20945 | 35.91366 | 28881 ft | 406 kts | 314° |
| 2026-05-01 10:31 | 56.24925 | 35.84565 | 29889 ft | 388 kts | 334° |
| 2026-05-01 10:32 | 56.29398 | 35.79152 | 30970 ft | 393 kts | 333° |
| 2026-05-01 10:32 | 56.31624 | 35.76254 | 31405 ft | 397 kts | 332° |
| 2026-05-01 10:32 | 56.36042 | 35.70279 | 32432 ft | 399 kts | 331° |
| 2026-05-01 10:33 | 56.40491 | 35.64320 | 33394 ft | 401 kts | 331° |
| 2026-05-01 10:33 | 56.45004 | 35.58292 | 34036 ft | 399 kts | 331° |
| 2026-05-01 10:34 | 56.47228 | 35.55315 | 34192 ft | 397 kts | 331° |
| 2026-05-01 10:34 | 56.51620 | 35.49441 | 34198 ft | 393 kts | 331° |
| 2026-05-01 10:35 | 56.58168 | 35.40642 | 34206 ft | 390 kts | 331° |
| 2026-05-01 10:35 | 56.62504 | 35.34659 | 34209 ft | 391 kts | 330° |
| 2026-05-01 10:36 | 56.68978 | 35.25651 | 34205 ft | 386 kts | 332° |
| 2026-05-01 10:37 | 56.73283 | 35.19690 | 34397 ft | 396 kts | 331° |
| 2026-05-01 10:37 | 56.77762 | 35.13487 | 34670 ft | 412 kts | 330° |
| 2026-05-01 10:37 | 56.80027 | 35.10320 | 34966 ft | 407 kts | 330° |
| 2026-05-01 10:38 | 56.82234 | 35.07211 | 34762 ft | 396 kts | 330° |
| 2026-05-01 10:38 | 56.84410 | 35.04165 | 34351 ft | 392 kts | 331° |
| 2026-05-01 10:38 | 56.88779 | 34.98107 | 34237 ft | 399 kts | 332° |
| 2026-05-01 10:39 | 56.93316 | 34.92128 | 34386 ft | 400 kts | 335° |
| 2026-05-01 10:39 | 56.95628 | 34.89316 | 34501 ft | 397 kts | 335° |
| 2026-05-01 10:39 | 56.97934 | 34.86563 | 34615 ft | 397 kts | 335° |
| 2026-05-01 10:40 | 57.00253 | 34.83783 | 34726 ft | 398 kts | 335° |
| 2026-05-01 10:40 | 57.02567 | 34.80985 | 34735 ft | 400 kts | 335° |
| 2026-05-01 10:40 | 57.07155 | 34.75382 | 34702 ft | 395 kts | 335° |
| 2026-05-01 10:41 | 57.11652 | 34.69876 | 34471 ft | 380 kts | 335° |
| 2026-05-01 10:42 | 57.18369 | 34.61721 | 34600 ft | 394 kts | 335° |
| 2026-05-01 10:42 | 57.20665 | 34.58919 | 34720 ft | 398 kts | 335° |
| 2026-05-01 10:42 | 57.22970 | 34.56089 | 34838 ft | 398 kts | 334° |
| 2026-05-01 10:42 | 57.25269 | 34.53263 | 34950 ft | 397 kts | 334° |
| 2026-05-01 10:43 | 57.27571 | 34.50436 | 35064 ft | 396 kts | 334° |
| 2026-05-01 10:43 | 57.29863 | 34.47628 | 35181 ft | 396 kts | 334° |
| 2026-05-01 10:43 | 57.32151 | 34.44827 | 35327 ft | 396 kts | 334° |
| 2026-05-01 10:43 | 57.34457 | 34.42001 | 35567 ft | 397 kts | 334° |
| 2026-05-01 10:44 | 57.36776 | 34.39161 | 35812 ft | 402 kts | 334° |
| 2026-05-01 10:44 | 57.39115 | 34.36293 | 36061 ft | 406 kts | 333° |
| 2026-05-01 10:44 | 57.41486 | 34.33379 | 36201 ft | 410 kts | 333° |
| 2026-05-01 10:45 | 57.46232 | 34.27522 | 36204 ft | 407 kts | 333° |
| 2026-05-01 10:45 | 57.50904 | 34.21756 | 36216 ft | 401 kts | 333° |
| 2026-05-01 10:46 | 57.55550 | 34.16033 | 36209 ft | 400 kts | 333° |
| 2026-05-01 10:46 | 57.60199 | 34.10298 | 36210 ft | 401 kts | 333° |
| 2026-05-01 10:47 | 57.64841 | 34.04556 | 36212 ft | 402 kts | 333° |
| 2026-05-01 10:47 | 57.69517 | 33.98764 | 36212 ft | 403 kts | 333° |
| 2026-05-01 10:48 | 57.74175 | 33.92978 | 36216 ft | 401 kts | 333° |
| 2026-05-01 10:48 | 57.78831 | 33.87205 | 36212 ft | 402 kts | 333° |
| 2026-05-01 10:49 | 57.83496 | 33.81406 | 36207 ft | 402 kts | 333° |
| 2026-05-01 10:49 | 57.88092 | 33.75367 | 36205 ft | 405 kts | 329° |
| 2026-05-01 10:50 | 57.92476 | 33.68698 | 36207 ft | 406 kts | 327° |
| 2026-05-01 10:50 | 57.96810 | 33.62003 | 36173 ft | 405 kts | 327° |
| 2026-05-01 10:51 | 58.01219 | 33.55307 | 36201 ft | 404 kts | 328° |
| 2026-05-01 10:51 | 58.05600 | 33.48650 | 36207 ft | 404 kts | 328° |
| 2026-05-01 10:52 | 58.09950 | 33.42012 | 36206 ft | 405 kts | 327° |
| 2026-05-01 10:52 | 58.14322 | 33.35333 | 36201 ft | 404 kts | 327° |
| 2026-05-01 10:53 | 58.18700 | 33.28625 | 36210 ft | 405 kts | 327° |
| 2026-05-01 10:53 | 58.23052 | 33.21862 | 36209 ft | 402 kts | 327° |
| 2026-05-01 10:54 | 58.27377 | 33.15116 | 36205 ft | 402 kts | 327° |
| 2026-05-01 10:54 | 58.31702 | 33.08375 | 36204 ft | 402 kts | 327° |
| 2026-05-01 10:55 | 58.36025 | 33.01626 | 36206 ft | 402 kts | 327° |
| 2026-05-01 10:55 | 58.40348 | 32.94867 | 36206 ft | 402 kts | 327° |
| 2026-05-01 10:56 | 58.44662 | 32.88091 | 36208 ft | 402 kts | 327° |
| 2026-05-01 10:56 | 58.48930 | 32.81305 | 36212 ft | 396 kts | 327° |
| 2026-05-01 10:56 | 58.51039 | 32.77948 | 36111 ft | 392 kts | 327° |
| 2026-05-01 10:57 | 58.53108 | 32.74647 | 35653 ft | 385 kts | 327° |
| 2026-05-01 10:57 | 58.55171 | 32.71364 | 34942 ft | 384 kts | 327° |
| 2026-05-01 10:57 | 58.57231 | 32.68094 | 34207 ft | 384 kts | 328° |
| 2026-05-01 10:57 | 58.59283 | 32.64829 | 33365 ft | 384 kts | 328° |
| 2026-05-01 10:58 | 58.61324 | 32.61576 | 32572 ft | 382 kts | 328° |
| 2026-05-01 10:58 | 58.63373 | 32.58303 | 31823 ft | 380 kts | 328° |
| 2026-05-01 10:58 | 58.65367 | 32.55114 | 31159 ft | 376 kts | 328° |
| 2026-05-01 10:58 | 58.67389 | 32.51879 | 30500 ft | 371 kts | 328° |
| 2026-05-01 10:59 | 58.69339 | 32.48758 | 29715 ft | 369 kts | 329° |
| 2026-05-01 10:59 | 58.71297 | 32.45630 | 29073 ft | 363 kts | 328° |
| 2026-05-01 10:59 | 58.73208 | 32.42567 | 28693 ft | 351 kts | 329° |
| 2026-05-01 10:59 | 58.75047 | 32.39607 | 28323 ft | 340 kts | 329° |
| 2026-05-01 11:00 | 58.76857 | 32.36693 | 27496 ft | 341 kts | 328° |
| 2026-05-01 11:00 | 58.78688 | 32.33732 | 26683 ft | 344 kts | 328° |
| 2026-05-01 11:00 | 58.80516 | 32.30757 | 25970 ft | 343 kts | 328° |
| 2026-05-01 11:00 | 58.82330 | 32.27794 | 25331 ft | 341 kts | 327° |
| 2026-05-01 11:01 | 58.83525 | 32.25840 | 24931 ft | 339 kts | 327° |
| 2026-05-01 11:01 | 58.85923 | 32.21919 | 24132 ft | 336 kts | 327° |
| 2026-05-01 11:01 | 58.87104 | 32.19990 | 23741 ft | 334 kts | 327° |
| 2026-05-01 11:01 | 58.88875 | 32.17098 | 23072 ft | 331 kts | 327° |
| 2026-05-01 11:02 | 58.90617 | 32.14247 | 22466 ft | 328 kts | 327° |
| 2026-05-01 11:02 | 58.92348 | 32.11415 | 21901 ft | 323 kts | 327° |
| 2026-05-01 11:02 | 58.94057 | 32.08617 | 21319 ft | 319 kts | 326° |
| 2026-05-01 11:02 | 58.95743 | 32.05854 | 20814 ft | 315 kts | 326° |
| 2026-05-01 11:03 | 58.97400 | 32.03140 | 20331 ft | 310 kts | 326° |
| 2026-05-01 11:03 | 58.99033 | 32.00463 | 19857 ft | 306 kts | 326° |
| 2026-05-01 11:03 | 59.00653 | 31.97809 | 19392 ft | 303 kts | 326° |
| 2026-05-01 11:03 | 59.02257 | 31.95177 | 18928 ft | 300 kts | 326° |
| 2026-05-01 11:04 | 59.03842 | 31.92577 | 18460 ft | 297 kts | 326° |
| 2026-05-01 11:04 | 59.05417 | 31.89992 | 17933 ft | 295 kts | 326° |
| 2026-05-01 11:04 | 59.06957 | 31.87461 | 17430 ft | 293 kts | 326° |
| 2026-05-01 11:04 | 59.08519 | 31.84892 | 16938 ft | 290 kts | 326° |
| 2026-05-01 11:05 | 59.10048 | 31.82349 | 16456 ft | 288 kts | 325° |
| 2026-05-01 11:05 | 59.11527 | 31.79728 | 15982 ft | 287 kts | 323° |
| 2026-05-01 11:05 | 59.12956 | 31.77055 | 15514 ft | 285 kts | 322° |
| 2026-05-01 11:05 | 59.14374 | 31.74351 | 15040 ft | 284 kts | 322° |
| 2026-05-01 11:06 | 59.15785 | 31.71663 | 14568 ft | 283 kts | 322° |
| 2026-05-01 11:06 | 59.17192 | 31.68990 | 14098 ft | 282 kts | 321° |
| 2026-05-01 11:06 | 59.18599 | 31.66317 | 13594 ft | 280 kts | 321° |
| 2026-05-01 11:07 | 59.21310 | 31.61156 | 13001 ft | 265 kts | 321° |
| 2026-05-01 11:07 | 59.22613 | 31.58678 | 12759 ft | 257 kts | 321° |
| 2026-05-01 11:07 | 59.23861 | 31.56301 | 12682 ft | 246 kts | 322° |
| 2026-05-01 11:07 | 59.25083 | 31.53983 | 12728 ft | 250 kts | 322° |
| 2026-05-01 11:08 | 59.26331 | 31.51607 | 12678 ft | 249 kts | 321° |
| 2026-05-01 11:08 | 59.27553 | 31.49254 | 12315 ft | 247 kts | 321° |
| 2026-05-01 11:08 | 59.30040 | 31.44457 | 11297 ft | 255 kts | 320° |
| 2026-05-01 11:09 | 59.31313 | 31.41998 | 10804 ft | 258 kts | 320° |
| 2026-05-01 11:09 | 59.32588 | 31.39538 | 10391 ft | 257 kts | 320° |
| 2026-05-01 11:09 | 59.33858 | 31.37086 | 9980 ft | 256 kts | 320° |
| 2026-05-01 11:10 | 59.36400 | 31.32172 | 9065 ft | 256 kts | 319° |
| 2026-05-01 11:10 | 59.37663 | 31.29727 | 8642 ft | 255 kts | 319° |
| 2026-05-01 11:10 | 59.38928 | 31.27282 | 8230 ft | 254 kts | 319° |
| 2026-05-01 11:10 | 59.40178 | 31.24861 | 7814 ft | 253 kts | 319° |
| 2026-05-01 11:11 | 59.41426 | 31.22443 | 7415 ft | 251 kts | 317° |
| 2026-05-01 11:11 | 59.42659 | 31.20052 | 7008 ft | 247 kts | 317° |
| 2026-05-01 11:11 | 59.43873 | 31.17699 | 6553 ft | 244 kts | 317° |
| 2026-05-01 11:11 | 59.45067 | 31.15386 | 6152 ft | 238 kts | 317° |
| 2026-05-01 11:12 | 59.46232 | 31.13126 | 5796 ft | 232 kts | 317° |
| 2026-05-01 11:12 | 59.47360 | 31.10937 | 5472 ft | 225 kts | 317° |
| 2026-05-01 11:12 | 59.48459 | 31.08805 | 5190 ft | 218 kts | 317° |
| 2026-05-01 11:12 | 59.49500 | 31.06781 | 5117 ft | 202 kts | 317° |
| 2026-05-01 11:13 | 59.50470 | 31.04896 | 5157 ft | 196 kts | 317° |
| 2026-05-01 11:13 | 59.51417 | 31.03012 | 5189 ft | 196 kts | 315° |
| 2026-05-01 11:13 | 59.52330 | 31.01038 | 5181 ft | 194 kts | 314° |
| 2026-05-01 11:13 | 59.53211 | 30.99049 | 5172 ft | 192 kts | 313° |
| 2026-05-01 11:14 | 59.54082 | 30.97063 | 5170 ft | 191 kts | 313° |
| 2026-05-01 11:14 | 59.54945 | 30.95085 | 5161 ft | 190 kts | 313° |
| 2026-05-01 11:14 | 59.55807 | 30.93110 | 4959 ft | 191 kts | 313° |
| 2026-05-01 11:14 | 59.56692 | 30.91082 | 4504 ft | 199 kts | 313° |
| 2026-05-01 11:15 | 59.57609 | 30.88981 | 4161 ft | 203 kts | 312° |
| 2026-05-01 11:15 | 59.58527 | 30.86873 | 3816 ft | 205 kts | 311° |
| 2026-05-01 11:15 | 59.59463 | 30.84723 | 3500 ft | 205 kts | 311° |
| 2026-05-01 11:15 | 59.60393 | 30.82600 | 3238 ft | 204 kts | 311° |
| 2026-05-01 11:16 | 59.61313 | 30.80484 | 2973 ft | 202 kts | 311° |
| 2026-05-01 11:16 | 59.62223 | 30.78383 | 2736 ft | 199 kts | 312° |
| 2026-05-01 11:16 | 59.63101 | 30.76362 | 2632 ft | 188 kts | 310° |
| 2026-05-01 11:16 | 59.63924 | 30.74474 | 2636 ft | 174 kts | 310° |
| 2026-05-01 11:17 | 59.64709 | 30.72666 | 2777 ft | 181 kts | 310° |
| 2026-05-01 11:17 | 59.65554 | 30.70717 | 2778 ft | 186 kts | 310° |
| 2026-05-01 11:17 | 59.66429 | 30.68937 | 2715 ft | 173 kts | 317° |
| 2026-05-01 11:17 | 59.67329 | 30.67471 | 2637 ft | 162 kts | 321° |
| 2026-05-01 11:18 | 59.68201 | 30.66173 | 2639 ft | 156 kts | 322° |
| 2026-05-01 11:18 | 59.69085 | 30.64898 | 2682 ft | 160 kts | 324° |
| 2026-05-01 11:18 | 59.69984 | 30.63622 | 2676 ft | 157 kts | 323° |
| 2026-05-01 11:18 | 59.70860 | 30.62372 | 2649 ft | 156 kts | 324° |
| 2026-05-01 11:19 | 59.71753 | 30.61103 | 2680 ft | 160 kts | 324° |
| 2026-05-01 11:19 | 59.72662 | 30.59815 | 2674 ft | 160 kts | 323° |
| 2026-05-01 11:19 | 59.73561 | 30.58537 | 2666 ft | 158 kts | 323° |
| 2026-05-01 11:19 | 59.74395 | 30.57116 | 2574 ft | 160 kts | 310° |
| 2026-05-01 11:20 | 59.74972 | 30.55247 | 2328 ft | 159 kts | 295° |
| 2026-05-01 11:20 | 59.75380 | 30.53264 | 2171 ft | 154 kts | 289° |
| 2026-05-01 11:20 | 59.75676 | 30.51217 | 2151 ft | 156 kts | 285° |
| 2026-05-01 11:20 | 59.75971 | 30.49142 | 2183 ft | 157 kts | 287° |
| 2026-05-01 11:21 | 59.76284 | 30.47063 | 2136 ft | 157 kts | 287° |
| 2026-05-01 11:21 | 59.76583 | 30.45010 | 1857 ft | 153 kts | 287° |
| 2026-05-01 11:21 | 59.76871 | 30.43057 | 1679 ft | 139 kts | 287° |
| 2026-05-01 11:21 | 59.77133 | 30.41292 | 1484 ft | 130 kts | 287° |
| 2026-05-01 11:22 | 59.77387 | 30.39567 | 1282 ft | 131 kts | 287° |
| 2026-05-01 11:22 | 59.77643 | 30.37813 | 1113 ft | 133 kts | 286° |
| 2026-05-01 11:22 | 59.77907 | 30.36053 | 912 ft | 133 kts | 286° |
| 2026-05-01 11:22 | 59.78173 | 30.34287 | 803 ft | 134 kts | 284° |
| 2026-05-01 11:23 | 59.78426 | 30.32492 | 564 ft | 137 kts | 285° |
| 2026-05-01 11:23 | 59.78673 | 30.30721 | 359 ft | 132 kts | 284° |
| 2026-05-01 11:23 | 59.78926 | 30.28963 | 224 ft | 133 kts | 285° |
| 2026-05-01 11:23 | 59.79183 | 30.27259 | 91 ft | 120 kts | 284° |
| 2026-05-01 11:24 | 59.79369 | 30.25970 | 84 ft | 56 kts | 287° |
| 2026-05-01 11:24 | 59.79414 | 30.25690 | 83 ft | 0 kts | 287° |
| 2026-05-01 11:24 | 59.79475 | 30.25547 | 84 ft | 9 kts | 26° |
| 2026-05-01 11:25 | 59.79503 | 30.25645 | 83 ft | 8 kts | 74° |
| 2026-05-01 11:25 | 59.79531 | 30.25843 | 85 ft | 7 kts | 75° |
| 2026-05-01 11:25 | 59.79540 | 30.25943 | 86 ft | 7 kts | 83° |
| 2026-05-01 11:26 | 59.79542 | 30.26039 | 85 ft | 6 kts | 94° |
| 2026-05-01 11:26 | 59.79525 | 30.26182 | 85 ft | 4 kts | 114° |
| 2026-05-01 11:26 | 59.79508 | 30.26260 | 83 ft | 7 kts | 109° |
| 2026-05-01 11:27 | 59.79502 | 30.26332 | 81 ft | 3 kts | 68° |
| 2026-05-01 11:27 | 59.79538 | 30.26369 | 80 ft | 9 kts | 20° |
| 2026-05-01 11:27 | 59.79597 | 30.26410 | 81 ft | 9 kts | 19° |
| 2026-05-01 11:27 | 59.79653 | 30.26444 | 81 ft | 8 kts | 16° |
| 2026-05-01 11:28 | 59.79708 | 30.26475 | 82 ft | 8 kts | 16° |
| 2026-05-01 11:28 | 59.79752 | 30.26501 | 81 ft | 3 kts | 16° |
| 2026-05-01 11:28 | 59.79781 | 30.26528 | 80 ft | 5 kts | 47° |
| 2026-05-01 11:29 | 59.79778 | 30.26669 | 80 ft | 5 kts | 95° |
| 2026-05-01 11:29 | 59.79778 | 30.26688 | 80 ft | 0 kts | 95° |
| 2026-05-01 11:32 | 59.79778 | 30.26689 | 80 ft | 0 kts | 95° |